Time;durP1;ratioP1;P1;durP2;ratioP2;P2;SDS_P1;SDS_P2;PMS_P1;PMS_P2;Temp;Humidity;BMP_temperature;BMP_pressure;BME280_temperature;BME280_humidity;BME280_pressure;Samples;Min_cycle;Max_cycle;Signal;HPM_P1;HPM_P2
2022/10/28 00:00:21;;;;;;;9.28;4.33;;;16.00;99.90;;;;;;1907282;73;21466;-82
2022/10/28 00:06:04;;;;;;;12.00;4.15;;;15.90;99.90;;;;;;1952371;72;22166;-82
2022/10/28 00:08:56;;;;;;;16.62;4.33;;;15.90;99.90;;;;;;1918309;73;21107;-83
2022/10/28 00:11:47;;;;;;;9.45;4.40;;;16.00;99.90;;;;;;1924518;73;21490;-83
2022/10/28 00:14:39;;;;;;;10.10;4.20;;;15.90;99.90;;;;;;1916504;75;21047;-82
2022/10/28 00:17:31;;;;;;;12.70;4.22;;;15.70;99.90;;;;;;1921333;73;21040;-82
2022/10/28 00:20:22;;;;;;;7.40;4.05;;;15.70;99.90;;;;;;1918991;73;21462;-82
2022/10/28 00:23:13;;;;;;;10.88;3.80;;;15.60;99.90;;;;;;1944007;73;21105;-82
2022/10/28 00:26:10;;;;;;;10.63;4.20;;;15.60;99.90;;;;;;1928903;73;21081;-83
2022/10/28 00:31:46;;;;;;;12.93;4.70;;;15.60;99.90;;;;;;1932180;72;23157;-82
2022/10/28 00:34:37;;;;;;;9.08;4.65;;;15.50;99.90;;;;;;1883657;75;21067;-82
2022/10/28 00:40:11;;;;;;;12.55;4.47;;;15.40;99.90;;;;;;1947197;72;22337;-82
2022/10/28 00:43:02;;;;;;;10.25;4.62;;;15.40;99.90;;;;;;1901867;75;21114;-82
2022/10/28 00:45:54;;;;;;;13.43;4.28;;;15.40;99.90;;;;;;1879316;75;21130;-82
2022/10/28 00:48:48;;;;;;;9.25;3.98;;;15.30;99.90;;;;;;1880811;75;21609;-82
2022/10/28 00:51:41;;;;;;;10.93;4.62;;;15.30;99.90;;;;;;1873530;75;21133;-82
2022/10/28 00:54:33;;;;;;;10.85;4.12;;;15.30;99.90;;;;;;1889986;75;21055;-82
2022/10/28 01:00:10;;;;;;;11.15;4.72;;;15.30;99.90;;;;;;1944284;72;22198;-82
2022/10/28 01:03:01;;;;;;;9.33;4.20;;;15.30;99.90;;;;;;1928363;73;21094;-84
2022/10/28 01:05:54;;;;;;;10.13;4.22;;;15.30;99.90;;;;;;1949294;73;21080;-84
2022/10/28 01:08:45;;;;;;;12.05;4.67;;;15.30;99.90;;;;;;1928724;73;21079;-84
2022/10/28 01:14:41;;;;;;;8.93;3.77;;;15.20;99.90;;;;;;1951557;72;22132;-82
2022/10/28 01:17:51;;;;;;;11.10;3.92;;;15.20;99.90;;;;;;1882175;75;21098;-82
2022/10/28 01:21:11;;;;;;;7.95;4.25;;;15.20;99.90;;;;;;1883369;75;21164;-83
2022/10/28 01:27:49;;;;;;;9.38;4.20;;;15.10;99.90;;;;;;1945801;72;22131;-82
2022/10/28 01:33:27;;;;;;;11.80;4.45;;;15.00;99.90;;;;;;1919266;72;22722;-82
2022/10/28 01:41:53;;;;;;;10.05;4.30;;;15.10;99.90;;;;;;1937466;72;22136;-82
2022/10/28 01:44:49;;;;;;;6.47;4.30;;;15.10;99.90;;;;;;1893814;75;21095;-82
2022/10/28 01:47:43;;;;;;;11.08;3.90;;;15.10;99.90;;;;;;1895687;75;21054;-82
2022/10/28 01:50:37;;;;;;;8.30;4.22;;;15.10;99.90;;;;;;1917548;75;21119;-81
2022/10/28 01:53:32;;;;;;;9.43;4.05;;;15.10;99.90;;;;;;1907897;75;21126;-82
2022/10/28 01:56:27;;;;;;;7.83;3.60;;;15.20;99.90;;;;;;1884343;75;21078;-82
2022/10/28 02:02:01;;;;;;;7.95;3.83;;;15.10;99.90;;;;;;1928193;72;22160;-82
2022/10/28 02:05:01;;;;;;;7.12;3.98;;;15.10;99.90;;;;;;1931195;73;21086;-82
2022/10/28 02:10:35;;;;;;;9.83;4.17;;;15.10;99.90;;;;;;1951976;72;22154;-82
2022/10/28 02:13:29;;;;;;;8.80;3.72;;;15.20;99.90;;;;;;1924155;73;21143;-83
2022/10/28 02:19:08;;;;;;;11.78;4.05;;;15.10;99.90;;;;;;1939165;72;22261;-82
2022/10/28 02:22:07;;;;;;;9.48;3.62;;;15.10;99.90;;;;;;1903525;74;21099;-82
2022/10/28 02:25:02;;;;;;;12.18;4.17;;;15.10;99.90;;;;;;1900508;75;21059;-82
2022/10/28 02:27:57;;;;;;;10.65;3.98;;;15.10;99.90;;;;;;1900509;75;21094;-82
2022/10/28 02:30:51;;;;;;;7.08;4.22;;;15.00;99.90;;;;;;1900409;75;21110;-84
2022/10/28 02:33:44;;;;;;;12.47;3.87;;;15.00;99.90;;;;;;1897789;75;21183;-83
2022/10/28 02:36:39;;;;;;;8.30;4.20;;;15.10;99.90;;;;;;1895590;75;21141;-83
2022/10/28 02:39:33;;;;;;;13.13;4.37;;;15.10;99.90;;;;;;1905347;75;21051;-82
2022/10/28 02:42:28;;;;;;;8.58;3.62;;;15.10;99.90;;;;;;1910972;75;21507;-82
2022/10/28 02:45:22;;;;;;;8.65;4.28;;;15.10;99.90;;;;;;1888454;75;21168;-82
2022/10/28 02:48:17;;;;;;;9.03;3.87;;;15.10;99.90;;;;;;1890551;75;21114;-82
2022/10/28 02:51:11;;;;;;;10.55;4.05;;;15.10;99.90;;;;;;1889037;75;21125;-83
2022/10/28 02:54:05;;;;;;;12.73;4.50;;;15.10;99.90;;;;;;1886816;75;21043;-83
2022/10/28 02:59:36;;;;;;;9.98;4.17;;;15.00;99.90;;;;;;1952998;72;22234;-82
2022/10/28 03:02:27;;;;;;;10.13;4.37;;;14.90;99.90;;;;;;1931302;73;21203;-82
2022/10/28 03:05:19;;;;;;;9.45;4.30;;;14.90;99.90;;;;;;1939651;73;21083;-82
2022/10/28 03:10:49;;;;;;;9.70;3.70;;;14.80;99.90;;;;;;1951367;72;22196;-82
2022/10/28 03:13:40;;;;;;;7.12;3.77;;;14.80;99.90;;;;;;1897907;74;21093;-83
2022/10/28 03:16:32;;;;;;;7.35;3.70;;;14.80;99.90;;;;;;1908970;74;21187;-83
2022/10/28 03:19:23;;;;;;;9.13;4.05;;;14.80;99.90;;;;;;1903317;74;21098;-82
2022/10/28 03:24:54;;;;;;;13.45;4.85;;;14.90;99.90;;;;;;1940698;72;22306;-82
2022/10/28 03:27:46;;;;;;;8.85;4.08;;;14.90;99.90;;;;;;1883990;75;21238;-83
2022/10/28 03:30:38;;;;;;;12.07;4.12;;;14.90;99.90;;;;;;1873234;75;21060;-83
2022/10/28 03:33:29;;;;;;;7.72;3.60;;;14.90;99.90;;;;;;1872033;75;21141;-84
2022/10/28 03:36:21;;;;;;;10.82;4.00;;;14.80;99.90;;;;;;1878718;75;21139;-82
2022/10/28 03:39:12;;;;;;;8.33;3.85;;;14.90;99.90;;;;;;1899799;75;21098;-82
2022/10/28 03:44:41;;;;;;;11.08;3.80;;;14.90;99.90;;;;;;1929708;72;22129;-82
2022/10/28 03:50:12;;;;;;;7.75;4.00;;;14.90;99.90;;;;;;1958882;72;22256;-82
2022/10/28 03:55:44;;;;;;;9.90;4.12;;;14.90;99.90;;;;;;1939181;72;22150;-84
2022/10/28 03:58:35;;;;;;;9.93;4.15;;;14.80;99.90;;;;;;1913069;75;21090;-83
2022/10/28 04:01:28;;;;;;;8.85;3.55;;;14.80;99.90;;;;;;1891651;75;21617;-82
2022/10/28 04:04:19;;;;;;;10.72;3.90;;;14.80;99.90;;;;;;1906152;75;21149;-83
2022/10/28 04:09:50;;;;;;;8.93;4.35;;;14.80;99.90;;;;;;1937576;72;22162;-82
2022/10/28 04:12:42;;;;;;;10.23;4.05;;;14.80;99.90;;;;;;1879223;75;21102;-81
2022/10/28 04:15:33;;;;;;;11.80;3.98;;;14.80;99.90;;;;;;1878950;75;21560;-82
2022/10/28 04:18:24;;;;;;;9.38;3.50;;;14.70;99.90;;;;;;1890486;75;21499;-82
2022/10/28 04:23:54;;;;;;;6.97;3.95;;;14.60;99.90;;;;;;1924669;72;22682;-82
2022/10/28 04:26:45;;;;;;;9.83;3.70;;;14.60;99.90;;;;;;1919937;73;21128;-82
2022/10/28 04:29:37;;;;;;;12.33;4.20;;;14.60;99.90;;;;;;1921574;73;21089;-82
2022/10/28 04:35:11;;;;;;;9.13;3.60;;;14.40;99.90;;;;;;1945967;72;22229;-82
2022/10/28 04:40:40;;;;;;;7.28;4.00;;;14.30;99.90;;;;;;1948941;72;22163;-82
2022/10/28 04:43:32;;;;;;;9.83;3.65;;;14.30;99.90;;;;;;1874098;74;21137;-82
2022/10/28 04:46:23;;;;;;;10.72;3.90;;;14.30;99.90;;;;;;1879601;75;21615;-81
2022/10/28 04:49:15;;;;;;;9.18;3.70;;;14.30;99.90;;;;;;1882769;75;21614;-82
2022/10/28 04:52:07;;;;;;;7.15;3.80;;;14.20;99.90;;;;;;1886836;75;21067;-82
2022/10/28 04:55:00;;;;;;;12.55;4.05;;;14.20;99.90;;;;;;1888299;75;21124;-81
2022/10/28 04:57:55;;;;;;;11.63;4.97;;;14.30;99.90;;;;;;1883753;75;21063;-82
2022/10/28 05:00:47;;;;;;;9.38;4.17;;;14.20;99.90;;;;;;1880067;75;21564;-82
2022/10/28 05:03:38;;;;;;;13.40;4.55;;;14.20;99.90;;;;;;1897552;75;21075;-82
2022/10/28 05:06:30;;;;;;;14.87;4.92;;;14.30;99.90;;;;;;1891288;75;21051;-82
2022/10/28 05:09:22;;;;;;;11.90;4.95;;;14.30;99.90;;;;;;1885161;75;21127;-82
2022/10/28 05:12:13;;;;;;;9.68;4.60;;;14.40;99.90;;;;;;1881204;75;21596;-82
2022/10/28 05:15:06;;;;;;;9.75;4.60;;;14.40;99.90;;;;;;1877035;75;21047;-82
2022/10/28 05:17:57;;;;;;;8.65;3.92;;;14.40;99.90;;;;;;1891570;75;21051;-83
2022/10/28 05:20:53;;;;;;;14.75;5.62;;;14.30;99.90;;;;;;1887385;75;21051;-83
2022/10/28 05:23:43;;;;;;;10.55;4.90;;;14.30;99.90;;;;;;1900048;75;21529;-83
2022/10/28 05:26:33;;;;;;;10.50;4.60;;;14.30;99.90;;;;;;1894268;75;21040;-82
2022/10/28 05:29:25;;;;;;;12.03;4.72;;;14.30;99.90;;;;;;1878168;75;21117;-82
2022/10/28 05:34:57;;;;;;;8.60;4.20;;;14.30;99.90;;;;;;1921904;72;22287;-82
2022/10/28 05:37:48;;;;;;;9.10;3.80;;;14.20;99.90;;;;;;1892659;75;21172;-83
2022/10/28 05:40:39;;;;;;;8.00;4.10;;;14.30;99.90;;;;;;1883723;75;21243;-83
2022/10/28 05:43:31;;;;;;;7.85;4.08;;;14.40;99.90;;;;;;1895117;75;21115;-83
2022/10/28 05:46:22;;;;;;;10.40;4.03;;;14.30;99.90;;;;;;1890400;75;21047;-83
2022/10/28 05:49:19;;;;;;;9.38;4.25;;;14.30;99.90;;;;;;1889500;75;21058;-83
2022/10/28 05:52:06;;;;;;;12.23;4.70;;;14.20;99.90;;;;;;1889708;75;21150;-83
2022/10/28 05:57:37;;;;;;;9.90;3.90;;;14.30;99.90;;;;;;1936104;72;22218;-82
2022/10/28 06:00:29;;;;;;;10.75;3.70;;;14.20;99.90;;;;;;1886199;75;21143;-82
2022/10/28 06:03:21;;;;;;;12.25;4.25;;;14.20;99.90;;;;;;1881997;75;21108;-82
2022/10/28 06:06:13;;;;;;;9.15;4.25;;;14.20;99.90;;;;;;1875565;75;21111;-82
2022/10/28 06:09:05;;;;;;;11.63;5.47;;;14.30;99.90;;;;;;1897197;75;21882;-82
2022/10/28 06:14:37;;;;;;;11.85;4.72;;;14.30;99.90;;;;;;1914353;72;22297;-82
2022/10/28 06:20:10;;;;;;;10.60;4.25;;;14.40;99.90;;;;;;1938109;72;22186;-76
2022/10/28 06:25:41;;;;;;;13.53;4.37;;;14.40;99.90;;;;;;1912497;72;22220;-73
2022/10/28 06:28:32;;;;;;;7.30;4.20;;;14.40;99.90;;;;;;1897718;73;21103;-74
2022/10/28 06:31:23;;;;;;;11.90;4.87;;;14.40;99.90;;;;;;1902866;74;21079;-74
2022/10/28 06:34:15;;;;;;;7.90;4.05;;;14.40;99.90;;;;;;1897747;74;21060;-75
2022/10/28 06:37:07;;;;;;;14.58;4.33;;;14.40;99.90;;;;;;1899174;74;21176;-73
2022/10/28 06:39:59;;;;;;;14.33;5.25;;;14.40;99.90;;;;;;1908803;74;21103;-75
2022/10/28 06:42:52;;;;;;;12.68;5.15;;;14.30;99.90;;;;;;1896506;73;21529;-74
2022/10/28 06:45:45;;;;;;;13.93;4.95;;;14.20;99.90;;;;;;1888799;74;21172;-73
2022/10/28 06:48:36;;;;;;;13.08;4.40;;;14.20;99.90;;;;;;1906134;74;21037;-73
2022/10/28 06:51:28;;;;;;;12.60;4.37;;;14.30;99.90;;;;;;1904307;74;21232;-73
2022/10/28 06:54:20;;;;;;;10.85;6.00;;;14.30;99.90;;;;;;1900053;73;21250;-74
2022/10/28 06:57:12;;;;;;;9.75;4.72;;;14.30;99.90;;;;;;1902383;74;21135;-74
2022/10/28 07:00:04;;;;;;;12.10;5.67;;;14.40;99.90;;;;;;1904802;74;21193;-74
2022/10/28 07:02:55;;;;;;;11.00;4.87;;;14.40;99.90;;;;;;1897273;74;21162;-74
2022/10/28 07:05:49;;;;;;;13.25;4.70;;;14.40;99.90;;;;;;1904572;74;21156;-74
2022/10/28 07:08:40;;;;;;;11.78;4.50;;;14.40;99.90;;;;;;1899942;74;21061;-74
2022/10/28 07:11:31;;;;;;;11.28;4.50;;;14.50;99.90;;;;;;1907186;74;21263;-74
2022/10/28 07:14:22;;;;;;;13.58;4.22;;;14.60;99.90;;;;;;1893489;74;21521;-74
2022/10/28 07:20:02;;;;;;;11.12;4.45;;;14.60;99.90;;;;;;1917622;72;22170;-74
2022/10/28 07:22:57;;;;;;;14.35;3.98;;;14.70;99.90;;;;;;1899511;73;21111;-74
2022/10/28 07:25:55;;;;;;;10.70;3.70;;;14.70;99.90;;;;;;1893349;73;21179;-75
2022/10/28 07:28:46;;;;;;;16.87;4.33;;;14.70;99.90;;;;;;1884882;73;21103;-73
2022/10/28 07:31:37;;;;;;;9.78;4.00;;;14.80;99.90;;;;;;1898193;73;21129;-74
2022/10/28 07:34:28;;;;;;;9.48;3.83;;;14.90;99.90;;;;;;1892846;73;21153;-74
2022/10/28 07:37:19;;;;;;;10.50;4.45;;;15.00;99.90;;;;;;1880720;73;21167;-73
2022/10/28 07:40:11;;;;;;;15.08;4.67;;;15.10;99.90;;;;;;1881250;73;21094;-73
2022/10/28 07:43:03;;;;;;;22.30;6.80;;;15.10;99.90;;;;;;1893469;73;21263;-74
2022/10/28 07:45:58;;;;;;;14.80;4.47;;;15.10;99.90;;;;;;1891483;73;21248;-74
2022/10/28 07:48:49;;;;;;;10.38;4.15;;;15.10;99.90;;;;;;1898739;73;21042;-74
2022/10/28 07:51:41;;;;;;;10.08;4.78;;;15.20;99.90;;;;;;1896656;73;21043;-74
2022/10/28 07:54:32;;;;;;;12.50;4.92;;;15.30;99.90;;;;;;1884710;73;21158;-73
2022/10/28 07:57:24;;;;;;;14.43;4.92;;;15.30;99.90;;;;;;1883430;73;21179;-73
2022/10/28 08:00:16;;;;;;;12.45;4.62;;;15.40;99.90;;;;;;1892191;73;21107;-74
2022/10/28 08:03:08;;;;;;;7.85;4.17;;;15.40;99.90;;;;;;1892372;73;21091;-74
2022/10/28 08:06:02;;;;;;;15.30;4.55;;;15.50;99.90;;;;;;1887449;73;21160;-73
2022/10/28 08:08:56;;;;;;;9.73;4.10;;;15.50;99.90;;;;;;1892501;73;21167;-73
2022/10/28 08:11:48;;;;;;;16.42;4.33;;;15.50;99.90;;;;;;1889709;73;21111;-73
2022/10/28 08:14:39;;;;;;;8.33;4.08;;;15.50;99.90;;;;;;1891383;73;21056;-74
2022/10/28 08:17:30;;;;;;;11.75;4.30;;;15.60;99.90;;;;;;1911597;73;21157;-74
2022/10/28 08:20:22;;;;;;;9.53;4.33;;;15.70;99.90;;;;;;1880258;73;21133;-74
2022/10/28 08:23:14;;;;;;;10.90;4.05;;;15.80;99.90;;;;;;1873583;74;21518;-73
2022/10/28 08:26:06;;;;;;;16.15;4.78;;;15.80;99.90;;;;;;1889944;73;21168;-75
2022/10/28 08:31:37;;;;;;;12.18;4.40;;;16.00;99.90;;;;;;1937036;72;22178;-75
2022/10/28 08:34:29;;;;;;;14.55;5.70;;;16.10;99.90;;;;;;1896779;75;21473;-75
2022/10/28 08:37:22;;;;;;;14.05;7.72;;;16.20;99.90;;;;;;1895354;75;21183;-74
2022/10/28 08:40:14;;;;;;;11.95;5.35;;;16.30;99.90;;;;;;1896560;75;21655;-73
2022/10/28 08:43:11;;;;;;;15.38;4.72;;;16.40;99.90;;;;;;1899851;75;21149;-74
2022/10/28 08:46:06;;;;;;;13.00;5.42;;;16.50;99.90;;;;;;1901102;75;21110;-75
2022/10/28 08:48:57;;;;;;;13.03;4.20;;;16.60;99.90;;;;;;1901500;75;21158;-74
2022/10/28 08:54:46;;;;;;;14.30;4.50;;;16.90;99.90;;;;;;1940643;72;22187;-73
2022/10/28 08:57:40;;;;;;;10.98;4.28;;;17.10;99.90;;;;;;1896461;75;21102;-73
2022/10/28 09:00:33;;;;;;;14.68;4.30;;;17.30;99.90;;;;;;1893123;75;21149;-73
2022/10/28 09:03:27;;;;;;;8.53;3.85;;;17.50;99.90;;;;;;1893113;75;21833;-75
2022/10/28 09:06:19;;;;;;;9.98;3.77;;;17.60;99.90;;;;;;1865764;76;21070;-74
2022/10/28 09:09:14;;;;;;;12.05;4.10;;;17.80;99.90;;;;;;1886664;75;21163;-74
2022/10/28 09:12:15;;;;;;;8.65;4.55;;;18.00;99.90;;;;;;1902051;75;21203;-74
2022/10/28 09:15:16;;;;;;;9.78;3.80;;;18.10;99.90;;;;;;1898833;75;21115;-74
2022/10/28 09:18:11;;;;;;;14.15;4.20;;;18.30;99.90;;;;;;1899891;75;21152;-74
2022/10/28 09:21:05;;;;;;;15.23;4.58;;;18.40;99.90;;;;;;1898966;75;21166;-73
2022/10/28 09:23:58;;;;;;;8.95;3.95;;;18.50;99.90;;;;;;1902304;75;21176;-74
2022/10/28 09:26:54;;;;;;;11.22;4.08;;;18.60;99.90;;;;;;1854652;76;21142;-74
2022/10/28 09:29:49;;;;;;;12.70;4.42;;;18.70;99.90;;;;;;1898064;75;21108;-75
2022/10/28 09:32:43;;;;;;;12.40;4.30;;;18.80;99.90;;;;;;1890624;75;21097;-74
2022/10/28 09:35:40;;;;;;;11.40;3.85;;;18.80;99.90;;;;;;1899824;75;21113;-73
2022/10/28 09:38:36;;;;;;;9.48;3.87;;;18.90;99.90;;;;;;1893070;75;21066;-75
2022/10/28 09:41:30;;;;;;;11.20;3.80;;;18.90;99.90;;;;;;1895324;75;21201;-75
2022/10/28 09:44:25;;;;;;;9.85;3.72;;;18.90;99.90;;;;;;1904658;75;21159;-73
2022/10/28 09:47:20;;;;;;;8.03;3.47;;;19.00;99.90;;;;;;1868496;76;21152;-74
2022/10/28 09:50:17;;;;;;;9.03;3.47;;;19.00;99.90;;;;;;1865629;76;21100;-73
2022/10/28 09:55:57;;;;;;;10.82;3.70;;;19.20;99.90;;;;;;1933372;72;22929;-74
2022/10/28 09:58:48;;;;;;;10.63;3.42;;;19.20;99.90;;;;;;1859142;76;21116;-74
2022/10/28 10:01:41;;;;;;;10.28;3.62;;;19.30;99.90;;;;;;1890935;74;21561;-74
2022/10/28 10:04:34;;;;;;;11.95;3.70;;;19.20;99.90;;;;;;1898415;74;21163;-74
2022/10/28 10:10:19;;;;;;;9.68;3.80;;;19.00;99.90;;;;;;1941636;72;22205;-75
2022/10/28 10:13:11;;;;;;;12.28;4.00;;;19.00;99.90;;;;;;1917477;73;21099;-75
2022/10/28 10:16:05;;;;;;;11.75;3.98;;;19.10;99.90;;;;;;1917511;73;21131;-74
2022/10/28 10:18:59;;;;;;;14.73;4.05;;;19.10;99.90;;;;;;1917243;73;21210;-74
2022/10/28 10:21:53;;;;;;;11.15;4.33;;;19.00;99.90;;;;;;1922840;73;21098;-74
2022/10/28 10:24:45;;;;;;;17.60;4.35;;;18.90;99.90;;;;;;1917484;73;21488;-74
2022/10/28 10:27:37;;;;;;;14.03;3.52;;;19.00;99.90;;;;;;1918834;73;21510;-74
2022/10/28 10:30:31;;;;;;;12.13;3.60;;;19.00;99.90;;;;;;1921419;73;21172;-74
2022/10/28 10:33:25;;;;;;;14.70;3.60;;;19.20;99.90;;;;;;1932564;73;21081;-74
2022/10/28 10:36:19;;;;;;;16.23;4.65;;;19.40;99.90;;;;;;1921140;73;21204;-74
2022/10/28 10:39:21;;;;;;;18.40;4.35;;;19.50;99.90;;;;;;1920048;73;21099;-74
2022/10/28 10:42:24;;;;;;;16.25;4.67;;;19.70;99.90;;;;;;1921140;73;21130;-74
2022/10/28 10:45:22;;;;;;;14.13;4.17;;;19.90;99.90;;;;;;1917772;73;21158;-74
2022/10/28 10:48:17;;;;;;;12.00;4.35;;;20.10;99.90;;;;;;1925928;73;21051;-74
2022/10/28 10:51:11;;;;;;;14.25;4.55;;;20.20;99.90;;;;;;1920882;73;21106;-74
2022/10/28 10:54:01;;;;;;;16.25;4.40;;;20.30;99.90;;;;;;1920810;73;21157;-74
2022/10/28 10:56:53;;;;;;;11.43;3.90;;;20.40;99.90;;;;;;1919816;73;21051;-73
2022/10/28 10:59:48;;;;;;;10.25;4.42;;;20.40;99.90;;;;;;1921533;73;21102;-73
2022/10/28 11:02:40;;;;;;;10.75;4.15;;;20.50;99.90;;;;;;1918988;73;21082;-75
2022/10/28 11:05:32;;;;;;;13.40;4.50;;;20.50;99.90;;;;;;1918602;73;21510;-75
2022/10/28 11:08:33;;;;;;;13.00;5.12;;;20.60;99.90;;;;;;1917628;73;21170;-75
2022/10/28 11:11:32;;;;;;;12.60;4.22;;;20.60;99.90;;;;;;1920340;73;21178;-75
2022/10/28 11:14:28;;;;;;;14.63;4.87;;;20.50;99.90;;;;;;1924898;73;21154;-74
2022/10/28 11:20:10;;;;;;;13.13;5.10;;;20.70;99.90;;;;;;1944816;72;22217;-73
2022/10/28 11:23:21;;;;;;;11.35;4.08;;;20.70;99.90;;;;;;1910017;73;21168;-73
2022/10/28 11:26:14;;;;;;;11.00;4.00;;;20.70;99.90;;;;;;1902708;73;21099;-74
2022/10/28 11:29:11;;;;;;;10.40;3.40;;;20.80;99.90;;;;;;1912046;73;21621;-73
2022/10/28 11:38:14;;;;;;;13.53;3.70;;;21.30;99.90;;;;;;1929061;72;22206;-73
2022/10/28 11:41:19;;;;;;;9.13;3.22;;;21.30;99.90;;;;;;1906940;75;21579;-73
2022/10/28 11:44:19;;;;;;;9.15;3.47;;;21.30;99.90;;;;;;1890421;75;21107;-73
2022/10/28 11:47:18;;;;;;;9.50;4.45;;;21.30;99.90;;;;;;1893375;75;21079;-73
2022/10/28 11:50:26;;;;;;;10.53;3.77;;;21.30;99.90;;;;;;1898180;75;21185;-73
2022/10/28 11:53:47;;;;;;;;;;;21.40;99.90;;;;;;1894035;75;21140;-73
2022/10/28 12:00:00;;;;;;;12.18;3.05;;;21.50;99.90;;;;;;1936528;72;22266;-73
2022/10/28 12:05:39;;;;;;;10.85;3.27;;;21.70;99.90;;;;;;1937165;72;22735;-73
2022/10/28 12:08:40;;;;;;;10.30;4.17;;;21.80;99.90;;;;;;1892199;75;21213;-73
2022/10/28 12:11:46;;;;;;;7.92;3.40;;;21.90;99.90;;;;;;1884833;75;21051;-74
2022/10/28 12:14:42;;;;;;;11.83;4.08;;;21.90;99.90;;;;;;1891634;75;21066;-73
2022/10/28 12:20:21;;;;;;;9.25;3.42;;;21.90;99.90;;;;;;1948203;72;22169;-75
2022/10/28 12:23:15;;;;;;;11.97;3.40;;;21.90;99.90;;;;;;1916291;73;21134;-74
2022/10/28 12:26:10;;;;;;;18.57;3.92;;;21.90;99.90;;;;;;1919534;73;21466;-74
2022/10/28 12:29:04;;;;;;;16.67;3.40;;;21.90;99.90;;;;;;1917533;73;21691;-74
2022/10/28 12:31:58;;;;;;;14.03;3.30;;;21.90;99.90;;;;;;1920523;73;21192;-78
2022/10/28 12:34:53;;;;;;;16.27;3.70;;;21.90;99.90;;;;;;1916289;73;21066;-78
2022/10/28 12:37:48;;;;;;;9.10;3.42;;;21.80;99.90;;;;;;1919068;73;21059;-78
2022/10/28 12:40:42;;;;;;;12.65;3.40;;;21.80;99.90;;;;;;1923696;73;21172;-78
2022/10/28 12:43:37;;;;;;;9.95;3.42;;;21.90;99.90;;;;;;1916952;73;21516;-78
2022/10/28 12:46:33;;;;;;;11.53;2.83;;;22.00;99.90;;;;;;1917273;73;21154;-78
2022/10/28 12:49:29;;;;;;;14.98;3.52;;;22.00;99.90;;;;;;1922153;73;21943;-79
2022/10/28 12:52:33;;;;;;;13.10;3.30;;;22.10;99.90;;;;;;1916812;73;21203;-78
2022/10/28 12:55:33;;;;;;;15.78;4.03;;;22.20;99.90;;;;;;1916136;73;21655;-78
2022/10/28 12:58:28;;;;;;;14.07;3.42;;;22.20;99.90;;;;;;1921922;73;21166;-78
2022/10/28 13:01:22;;;;;;;10.53;3.33;;;22.20;99.90;;;;;;1921201;73;21133;-78
2022/10/28 13:04:14;;;;;;;14.07;3.62;;;22.10;99.90;;;;;;1918106;73;21074;-78
2022/10/28 13:07:30;;;;;;;11.88;3.58;;;22.10;99.90;;;;;;1917321;73;21125;-78
2022/10/28 13:10:27;;;;;;;13.08;3.55;;;22.10;99.90;;;;;;1918211;73;21704;-77
2022/10/28 13:13:41;;;;;;;11.35;4.05;;;22.00;99.90;;;;;;1916231;73;21120;-78
2022/10/28 13:17:04;;;;;;;11.63;4.28;;;22.10;99.90;;;;;;1921961;73;21136;-78
2022/10/28 13:20:05;;;;;;;13.20;3.80;;;22.00;99.90;;;;;;1911334;73;21190;-78
2022/10/28 13:23:23;;;;;;;18.92;4.58;;;22.00;99.90;;;;;;1902865;75;21264;-78
2022/10/28 13:26:17;;;;;;;;;;;22.00;99.90;;;;;;1902176;75;21079;-78
2022/10/28 13:29:18;;;;;;;11.55;4.17;;;22.10;99.90;;;;;;1910417;74;20190;-78
2022/10/28 13:32:31;;;;;;;12.60;4.22;;;22.20;99.90;;;;;;1911175;75;21045;-78
2022/10/28 13:35:26;;;;;;;19.07;4.05;;;22.30;99.90;;;;;;1906145;75;21207;-79
2022/10/28 13:38:21;;;;;;;13.65;4.50;;;22.40;99.90;;;;;;1905007;75;21717;-78
2022/10/28 13:41:29;;;;;;;13.32;4.17;;;22.50;99.90;;;;;;1903882;75;21095;-78
2022/10/28 13:44:26;;;;;;;15.50;4.47;;;22.60;99.90;;;;;;1903575;75;21213;-78
2022/10/28 13:47:35;;;;;;;14.93;4.80;;;22.60;99.90;;;;;;1911739;75;21103;-78
2022/10/28 13:50:36;;;;;;;15.25;4.90;;;22.70;99.90;;;;;;1906834;75;21113;-78
2022/10/28 13:53:56;;;;;;;17.27;4.30;;;22.70;99.90;;;;;;1903152;75;21206;-78
2022/10/28 13:56:49;;;;;;;14.80;4.50;;;22.70;99.90;;;;;;1905795;75;21221;-75
2022/10/28 13:59:54;;;;;;;15.45;4.45;;;22.70;99.90;;;;;;1904067;75;21206;-73
2022/10/28 14:02:49;;;;;;;14.65;4.67;;;22.80;99.90;;;;;;1901260;75;21119;-74
2022/10/28 14:05:55;;;;;;;13.98;4.00;;;22.80;99.90;;;;;;1903637;75;21093;-74
2022/10/28 14:08:46;;;;;;;15.55;4.47;;;22.90;99.90;;;;;;1903885;75;21174;-74
2022/10/28 14:11:37;;;;;;;16.40;4.90;;;22.90;99.90;;;;;;1906639;75;21092;-74
2022/10/28 14:14:29;;;;;;;16.65;4.92;;;22.80;99.90;;;;;;1902396;75;21178;-74
2022/10/28 14:17:24;;;;;;;10.18;4.55;;;22.80;99.90;;;;;;1908139;74;21101;-73
2022/10/28 14:20:29;;;;;;;10.53;4.45;;;22.80;99.90;;;;;;1890989;75;21239;-74
2022/10/28 14:24:21;;;;;;;12.13;4.90;;;22.90;99.90;;;;;;1888587;75;21200;-73
2022/10/28 14:27:27;;;;;;;12.00;4.72;;;23.00;99.90;;;;;;1892610;75;21089;-74
2022/10/28 14:30:22;;;;;;;11.90;4.65;;;23.00;99.90;;;;;;1890785;75;21154;-74
2022/10/28 14:33:23;;;;;;;12.37;4.50;;;23.00;99.90;;;;;;1892722;75;21184;-74
2022/10/28 14:36:27;;;;;;;16.67;5.20;;;23.00;99.90;;;;;;1890409;75;21118;-74
2022/10/28 14:39:35;;;;;;;14.23;4.78;;;23.00;99.90;;;;;;1904437;74;21176;-74
2022/10/28 14:42:34;;;;;;;14.53;4.55;;;23.00;99.90;;;;;;1891894;75;21118;-74
2022/10/28 14:45:33;;;;;;;8.28;4.45;;;23.10;99.90;;;;;;1913047;75;21616;-74
2022/10/28 14:51:33;;;;;;;11.97;4.33;;;23.00;99.90;;;;;;1954484;72;22641;-73
2022/10/28 14:57:11;;;;;;;12.63;5.30;;;23.10;99.90;;;;;;1956764;72;22158;-73
2022/10/28 15:00:04;;;;;;;13.50;4.65;;;23.10;99.90;;;;;;1899804;74;21236;-74
2022/10/28 15:02:56;;;;;;;10.00;4.25;;;23.10;99.90;;;;;;1883724;75;21649;-74
2022/10/28 15:05:47;;;;;;;10.60;4.17;;;23.10;99.90;;;;;;1883836;75;21114;-74
2022/10/28 15:08:38;;;;;;;12.35;4.20;;;23.10;99.90;;;;;;1906115;75;21147;-74
2022/10/28 15:11:30;;;;;;;12.00;4.90;;;23.10;99.90;;;;;;1902623;75;21176;-74
2022/10/28 15:14:31;;;;;;;15.03;4.60;;;23.10;99.90;;;;;;1897295;75;21090;-74
2022/10/28 15:17:25;;;;;;;9.80;4.60;;;23.10;99.90;;;;;;1884541;75;21086;-74
2022/10/28 15:20:23;;;;;;;11.75;4.12;;;23.10;99.90;;;;;;1905971;75;21176;-74
2022/10/28 15:23:17;;;;;;;10.43;4.17;;;23.00;99.90;;;;;;1906013;75;21063;-74
2022/10/28 15:26:11;;;;;;;12.43;4.53;;;23.00;99.90;;;;;;1895185;75;21160;-74
2022/10/28 15:29:02;;;;;;;14.13;4.45;;;23.00;99.90;;;;;;1901923;75;21626;-74
2022/10/28 15:32:16;;;;;;;17.87;4.95;;;22.90;99.90;;;;;;1893115;75;21118;-74
2022/10/28 15:35:36;;;;;;;17.50;4.58;;;22.70;99.90;;;;;;1894807;75;21063;-78
2022/10/28 15:38:39;;;;;;;10.13;4.15;;;22.70;99.90;;;;;;1894816;75;21599;-88
2022/10/28 15:41:51;;;;;;;12.70;4.83;;;22.60;99.90;;;;;;1895256;75;21171;-89
2022/10/28 15:44:41;;;;;;;11.55;4.58;;;22.40;99.90;;;;;;1909771;75;21078;-89
2022/10/28 15:47:35;;;;;;;12.20;4.78;;;22.40;99.90;;;;;;1869712;76;21058;-90
2022/10/28 15:50:32;;;;;;;16.82;5.12;;;22.30;99.90;;;;;;1904294;75;21168;-87
2022/10/28 15:56:26;;;;;;;16.35;5.92;;;22.10;99.90;;;;;;1955295;72;22111;-90
2022/10/28 15:59:20;;;;;;;14.28;5.12;;;22.00;99.90;;;;;;1895438;74;21059;-90
2022/10/28 16:02:40;;;;;;;13.50;4.92;;;21.80;99.90;;;;;;1892594;75;21067;-90
2022/10/28 16:05:59;;;;;;;16.07;5.45;;;21.80;99.90;;;;;;1888792;75;21138;-90
2022/10/28 16:09:02;;;;;;;12.63;5.20;;;21.60;99.90;;;;;;1895698;75;21062;-90
2022/10/28 16:11:57;;;;;;;15.50;5.28;;;21.50;99.90;;;;;;1914368;75;21139;-89
2022/10/28 16:14:51;;;;;;;12.50;5.42;;;21.40;99.90;;;;;;1868035;76;21140;-89
2022/10/28 16:17:44;;;;;;;12.47;5.83;;;21.30;99.90;;;;;;1901149;75;21146;-89
2022/10/28 16:20:35;;;;;;;14.55;5.28;;;21.20;99.90;;;;;;1894531;75;21079;-89
2022/10/28 16:26:12;;;;;;;12.55;5.75;;;20.90;99.90;;;;;;1954322;72;22106;-89
2022/10/28 16:29:03;;;;;;;18.77;5.83;;;20.80;99.90;;;;;;1906450;74;21183;-89
2022/10/28 16:31:54;;;;;;;16.12;5.47;;;20.70;99.90;;;;;;1906790;75;21537;-89
2022/10/28 16:34:45;;;;;;;9.83;4.37;;;20.60;99.90;;;;;;1889122;75;21111;-90
2022/10/28 16:37:37;;;;;;;17.92;5.20;;;20.60;99.90;;;;;;1917185;75;21092;-90
2022/10/28 16:40:29;;;;;;;13.95;5.05;;;20.70;99.90;;;;;;1900989;75;21158;-91
2022/10/28 16:43:24;;;;;;;13.25;4.97;;;20.70;99.90;;;;;;1895530;75;21210;-89
2022/10/28 16:46:16;;;;;;;16.70;6.10;;;20.60;99.90;;;;;;1893122;75;21383;-89
2022/10/28 16:49:07;;;;;;;12.75;5.12;;;20.60;99.90;;;;;;1889137;75;21126;-90
2022/10/28 16:52:01;;;;;;;13.45;4.97;;;20.50;99.90;;;;;;1910088;75;21663;-89
2022/10/28 16:54:52;;;;;;;16.45;4.83;;;20.50;99.90;;;;;;1868810;76;21195;-89
2022/10/28 16:57:44;;;;;;;9.88;5.15;;;20.40;99.90;;;;;;1891756;75;21095;-90
2022/10/28 17:00:36;;;;;;;11.08;4.17;;;20.40;99.90;;;;;;1916779;75;21101;-91